Time;durP1;ratioP1;P1;durP2;ratioP2;P2;SDS_P1;SDS_P2;PMS_P1;PMS_P2;Temp;Humidity;BMP_temperature;BMP_pressure;BME280_temperature;BME280_humidity;BME280_pressure;Samples;Min_cycle;Max_cycle;Signal;HPM_P1;HPM_P2
2023/09/22 00:01:42;;;;;;;32.03;30.90;;;16.60;99.90;;;;;;5071437;28;20308;-64
2023/09/22 00:04:11;;;;;;;30.10;29.03;;;16.60;99.90;;;;;;5072801;28;20205;-64
2023/09/22 00:06:37;;;;;;;32.43;31.30;;;16.60;99.90;;;;;;5070273;28;20203;-63
2023/09/22 00:09:09;;;;;;;23.08;22.27;;;16.60;99.90;;;;;;5070545;28;20782;-63
2023/09/22 00:11:37;;;;;;;32.30;31.20;;;16.60;99.90;;;;;;5070761;28;20710;-63
2023/09/22 00:14:05;;;;;;;31.60;30.50;;;16.50;99.90;;;;;;5071074;28;20318;-63
2023/09/22 00:16:34;;;;;;;34.85;33.63;;;16.60;99.90;;;;;;5070802;28;20286;-63
2023/09/22 00:19:05;;;;;;;35.15;33.92;;;16.50;99.90;;;;;;5068491;28;20242;-63
2023/09/22 00:21:33;;;;;;;32.17;31.00;;;16.50;99.90;;;;;;5070952;28;20203;-63
2023/09/22 00:24:00;;;;;;;30.17;29.13;;;16.50;99.90;;;;;;5067161;28;20199;-64
2023/09/22 00:26:27;;;;;;;57.80;55.45;;;16.30;99.90;;;;;;5070194;28;20196;-64
2023/09/22 00:28:54;;;;;;;51.90;50.10;;;16.30;99.90;;;;;;5072033;28;20199;-64
2023/09/22 00:31:21;;;;;;;33.35;32.20;;;16.40;99.90;;;;;;5074793;28;21114;-64
2023/09/22 00:33:47;;;;;;;32.00;30.90;;;16.30;99.90;;;;;;5083733;28;20354;-63
2023/09/22 00:36:16;;;;;;;34.30;33.10;;;16.20;99.90;;;;;;5084698;28;20243;-64
2023/09/22 00:38:44;;;;;;;38.70;37.30;;;16.40;99.90;;;;;;5080705;28;20207;-65
2023/09/22 00:41:11;;;;;;;35.47;34.20;;;16.40;99.90;;;;;;5079141;28;20693;-64
2023/09/22 00:43:38;;;;;;;33.13;31.98;;;16.20;99.90;;;;;;5072626;28;20548;-65
2023/09/22 00:46:05;;;;;;;34.95;33.70;;;16.10;99.90;;;;;;5072679;28;20221;-64
2023/09/22 00:48:35;;;;;;;35.70;34.43;;;16.20;99.90;;;;;;5072785;28;20207;-64
2023/09/22 00:51:02;;;;;;;31.40;30.30;;;16.10;99.90;;;;;;5072237;28;20231;-64
2023/09/22 00:53:32;;;;;;;34.13;32.97;;;16.10;99.90;;;;;;5072068;28;20203;-64
2023/09/22 00:56:02;;;;;;;28.20;27.20;;;16.10;99.90;;;;;;5071903;28;20213;-64
2023/09/22 00:58:29;;;;;;;28.27;27.23;;;16.10;99.90;;;;;;5071043;28;20215;-64
2023/09/22 01:00:58;;;;;;;30.53;29.47;;;16.20;99.90;;;;;;5071728;28;20235;-64
2023/09/22 01:03:26;;;;;;;28.90;27.90;;;16.40;99.90;;;;;;5069550;28;20664;-64
2023/09/22 01:05:53;;;;;;;31.13;30.03;;;16.20;99.90;;;;;;5068797;28;20200;-65
2023/09/22 01:08:20;;;;;;;39.93;38.50;;;16.10;99.90;;;;;;5067516;28;20199;-64
2023/09/22 01:10:47;;;;;;;31.33;30.23;;;16.10;99.90;;;;;;5069298;28;20257;-65
2023/09/22 01:13:15;;;;;;;22.10;21.33;;;16.00;99.90;;;;;;5068967;28;20218;-65
2023/09/22 01:15:43;;;;;;;24.98;24.13;;;16.00;99.90;;;;;;5066962;28;20287;-65
2023/09/22 01:18:13;;;;;;;30.97;29.87;;;16.00;99.90;;;;;;5069102;28;20207;-63
2023/09/22 01:20:41;;;;;;;25.48;24.60;;;16.00;99.90;;;;;;5071823;28;20223;-64
2023/09/22 01:23:11;;;;;;;29.03;28.03;;;16.00;99.90;;;;;;5067492;28;20225;-64
2023/09/22 01:25:39;;;;;;;30.60;29.53;;;16.00;99.90;;;;;;5071193;28;20238;-64
2023/09/22 01:28:06;;;;;;;24.80;23.97;;;16.10;99.90;;;;;;5071544;28;20313;-64
2023/09/22 01:30:33;;;;;;;29.03;27.90;;;16.10;99.90;;;;;;5071333;28;20611;-64
2023/09/22 01:33:02;;;;;;;25.83;24.97;;;16.10;99.90;;;;;;5071349;28;20206;-64
2023/09/22 01:35:31;;;;;;;26.10;25.20;;;16.10;99.90;;;;;;5071102;28;20211;-64
2023/09/22 01:38:06;;;;;;;26.93;26.00;;;16.10;99.90;;;;;;5071203;28;20637;-65
2023/09/22 01:40:34;;;;;;;28.93;27.93;;;16.10;99.90;;;;;;5071074;28;20725;-64
2023/09/22 01:43:01;;;;;;;21.98;21.17;;;16.20;99.90;;;;;;5069999;28;20227;-64
2023/09/22 01:45:27;;;;;;;23.43;22.63;;;16.30;99.90;;;;;;5070859;28;20202;-65
2023/09/22 01:47:54;;;;;;;20.23;19.52;;;16.00;99.90;;;;;;5070429;28;20209;-64
2023/09/22 01:50:22;;;;;;;29.97;28.90;;;16.00;99.90;;;;;;5071379;28;20235;-66
2023/09/22 01:52:48;;;;;;;28.10;27.13;;;16.00;99.90;;;;;;5071212;28;20215;-64
2023/09/22 01:55:15;;;;;;;31.75;30.65;;;16.00;99.90;;;;;;5067824;28;20301;-62
2023/09/22 01:57:44;;;;;;;32.23;31.10;;;16.10;99.90;;;;;;5070897;28;20206;-64
2023/09/22 02:00:11;;;;;;;35.27;33.97;;;15.90;99.90;;;;;;5070505;28;20238;-63
2023/09/22 02:02:42;;;;;;;27.13;26.17;;;15.90;99.90;;;;;;5070801;28;20254;-64
2023/09/22 02:05:11;;;;;;;30.47;29.43;;;15.80;99.90;;;;;;5070609;28;20215;-63
2023/09/22 02:07:38;;;;;;;29.20;28.20;;;15.80;99.90;;;;;;5070382;28;20235;-64
2023/09/22 02:10:05;;;;;;;25.03;24.17;;;15.80;99.90;;;;;;5070571;28;20231;-63
2023/09/22 02:12:32;;;;;;;23.87;23.07;;;15.90;99.90;;;;;;5070702;28;20210;-63
2023/09/22 02:15:01;;;;;;;25.10;24.23;;;15.90;99.90;;;;;;5070406;28;20214;-63
2023/09/22 02:17:28;;;;;;;26.27;25.33;;;15.90;99.90;;;;;;5070608;28;20654;-64
2023/09/22 02:19:55;;;;;;;28.87;27.90;;;15.90;99.90;;;;;;5070430;28;20242;-63
2023/09/22 02:22:22;;;;;;;29.42;28.40;;;15.80;99.90;;;;;;5070312;28;20638;-63
2023/09/22 02:24:48;;;;;;;27.03;26.13;;;15.90;99.90;;;;;;5070218;28;20317;-64
2023/09/22 02:27:15;;;;;;;29.27;28.27;;;15.90;99.90;;;;;;5070202;28;20211;-63
2023/09/22 02:29:42;;;;;;;28.70;27.70;;;15.90;99.90;;;;;;5070206;28;20227;-62
2023/09/22 02:32:10;;;;;;;25.33;24.43;;;15.90;99.90;;;;;;5070310;28;20211;-62
2023/09/22 02:34:37;;;;;;;27.30;26.37;;;15.90;99.90;;;;;;5067264;28;20230;-62
2023/09/22 02:37:04;;;;;;;24.03;23.20;;;15.90;99.90;;;;;;5070392;28;20214;-62
2023/09/22 02:39:31;;;;;;;18.17;17.58;;;16.00;99.90;;;;;;5070213;28;20602;-62
2023/09/22 02:41:58;;;;;;;16.15;15.65;;;16.00;99.90;;;;;;5066574;28;20218;-63
2023/09/22 02:44:25;;;;;;;20.40;19.70;;;16.10;99.90;;;;;;5069815;28;20237;-62
2023/09/22 02:46:52;;;;;;;27.83;26.88;;;16.10;99.90;;;;;;5070160;28;21477;-62
2023/09/22 02:49:20;;;;;;;20.55;19.75;;;16.10;99.90;;;;;;5070286;28;20231;-62
2023/09/22 02:51:47;;;;;;;20.20;19.50;;;16.10;99.90;;;;;;5070030;28;20203;-62
2023/09/22 02:54:14;;;;;;;23.67;22.87;;;16.20;99.90;;;;;;5070480;28;20223;-62
2023/09/22 02:56:41;;;;;;;24.58;23.67;;;16.20;99.90;;;;;;5076933;28;20218;-62
2023/09/22 02:59:08;;;;;;;23.87;23.03;;;16.20;99.90;;;;;;5085076;28;20382;-64
2023/09/22 03:01:36;;;;;;;25.60;24.65;;;16.20;99.90;;;;;;5088265;28;20234;-62
2023/09/22 03:04:03;;;;;;;23.80;23.00;;;16.30;99.90;;;;;;5089086;28;20273;-62
2023/09/22 03:06:31;;;;;;;29.52;28.50;;;16.30;99.90;;;;;;5084992;28;20211;-63
2023/09/22 03:08:58;;;;;;;29.23;28.23;;;16.30;99.90;;;;;;5074984;28;20213;-62
2023/09/22 03:11:25;;;;;;;30.60;29.55;;;16.30;99.90;;;;;;5074374;28;20380;-63
2023/09/22 03:13:51;;;;;;;20.13;19.43;;;16.20;99.90;;;;;;5074506;28;20696;-62
2023/09/22 03:16:19;;;;;;;18.83;18.17;;;16.20;99.90;;;;;;5073741;28;20712;-62
2023/09/22 03:18:47;;;;;;;20.57;19.87;;;16.20;99.90;;;;;;5074591;28;20281;-63
2023/09/22 03:21:19;;;;;;;21.43;20.70;;;16.10;99.90;;;;;;5074212;28;20203;-62
2023/09/22 03:23:48;;;;;;;21.87;21.13;;;16.20;99.90;;;;;;5074045;28;20227;-62
2023/09/22 03:26:16;;;;;;;20.30;19.60;;;16.20;99.90;;;;;;5074145;28;20258;-62
2023/09/22 03:28:43;;;;;;;18.90;18.27;;;16.20;99.90;;;;;;5074206;28;20276;-64
2023/09/22 03:31:10;;;;;;;19.97;19.27;;;16.10;99.90;;;;;;5073756;28;20207;-64
2023/09/22 03:33:40;;;;;;;19.23;18.58;;;16.20;99.90;;;;;;5073746;28;20210;-63
2023/09/22 03:36:10;;;;;;;20.20;19.50;;;16.20;99.90;;;;;;5073591;28;20258;-63
2023/09/22 03:38:36;;;;;;;20.50;19.60;;;16.30;99.90;;;;;;5073660;28;20301;-63
2023/09/22 03:41:05;;;;;;;19.70;19.00;;;16.30;99.90;;;;;;5073327;28;20254;-63
2023/09/22 03:43:32;;;;;;;19.37;18.67;;;16.20;99.90;;;;;;5073671;28;20227;-63
2023/09/22 03:45:58;;;;;;;21.00;20.30;;;16.20;99.90;;;;;;5069620;28;20214;-64
2023/09/22 03:48:25;;;;;;;22.63;21.83;;;16.30;99.90;;;;;;5069149;28;20665;-63
2023/09/22 03:50:53;;;;;;;20.47;19.77;;;16.20;99.90;;;;;;5067531;28;20251;-62
2023/09/22 03:53:20;;;;;;;24.97;24.10;;;16.30;99.90;;;;;;5069677;28;20206;-63
2023/09/22 03:55:48;;;;;;;23.67;22.87;;;16.30;99.90;;;;;;5075026;28;20222;-63
2023/09/22 03:58:17;;;;;;;28.25;27.30;;;16.30;99.90;;;;;;5074095;28;20293;-63
2023/09/22 04:00:44;;;;;;;27.97;26.97;;;16.30;99.90;;;;;;5067623;28;20227;-62
2023/09/22 04:03:11;;;;;;;22.40;21.63;;;16.30;99.90;;;;;;5068346;28;20298;-62
2023/09/22 04:05:38;;;;;;;31.60;30.50;;;16.20;99.90;;;;;;5073298;28;20287;-62
2023/09/22 04:08:06;;;;;;;24.20;23.37;;;16.20;99.90;;;;;;5076421;28;20674;-62
2023/09/22 04:10:33;;;;;;;19.80;19.10;;;16.20;99.90;;;;;;5072627;28;20277;-63
2023/09/22 04:12:59;;;;;;;20.17;19.47;;;16.20;99.90;;;;;;5069610;28;20214;-63
2023/09/22 04:15:27;;;;;;;24.77;23.90;;;16.20;99.90;;;;;;5068545;28;20211;-62
2023/09/22 04:17:54;;;;;;;25.63;24.73;;;16.20;99.90;;;;;;5073140;28;20746;-63
2023/09/22 04:20:28;;;;;;;25.97;25.07;;;16.20;99.90;;;;;;5062884;28;20273;-63
2023/09/22 04:22:56;;;;;;;25.43;24.57;;;16.20;99.90;;;;;;5072874;28;20219;-62
2023/09/22 04:25:29;;;;;;;27.52;26.48;;;16.30;99.90;;;;;;5072605;28;20217;-64
2023/09/22 04:27:57;;;;;;;27.05;26.13;;;16.30;99.90;;;;;;5067905;28;20757;-62
2023/09/22 04:30:25;;;;;;;27.50;26.58;;;16.50;99.90;;;;;;5072265;28;20297;-63
2023/09/22 04:32:54;;;;;;;24.63;23.80;;;16.30;99.90;;;;;;5069286;28;20239;-63
2023/09/22 04:35:21;;;;;;;25.20;24.33;;;16.30;99.90;;;;;;5065683;28;20643;-63
2023/09/22 04:37:48;;;;;;;28.75;27.75;;;16.50;99.90;;;;;;5085628;28;20212;-63
2023/09/22 04:40:24;;;;;;;27.77;26.83;;;16.40;99.90;;;;;;5086471;28;20228;-63
2023/09/22 04:42:51;;;;;;;26.50;25.58;;;16.40;99.90;;;;;;5084932;28;20219;-63
2023/09/22 04:45:19;;;;;;;24.40;23.57;;;16.50;99.90;;;;;;5064552;28;20219;-64
2023/09/22 04:47:47;;;;;;;26.20;25.30;;;16.50;99.90;;;;;;5071355;28;20207;-62
2023/09/22 04:50:17;;;;;;;25.83;24.92;;;16.50;99.90;;;;;;5072478;28;20231;-62
2023/09/22 04:52:45;;;;;;;25.73;24.83;;;16.50;99.90;;;;;;5072185;28;20892;-62
2023/09/22 04:55:12;;;;;;;19.43;18.77;;;16.50;99.90;;;;;;5070581;28;20295;-62
2023/09/22 04:57:40;;;;;;;17.58;16.98;;;16.50;99.90;;;;;;5067843;28;20207;-62
2023/09/22 05:00:13;;;;;;;28.03;27.03;;;16.60;99.90;;;;;;5072489;28;20231;-62
2023/09/22 05:02:40;;;;;;;22.60;21.80;;;16.60;99.90;;;;;;5072625;28;20207;-63
2023/09/22 05:05:08;;;;;;;24.03;23.17;;;16.50;99.90;;;;;;5071693;28;20446;-62
2023/09/22 05:07:36;;;;;;;22.43;21.63;;;16.50;99.90;;;;;;5056122;28;20257;-62
2023/09/22 05:10:04;;;;;;;27.57;26.57;;;16.80;99.90;;;;;;5051586;28;20231;-62
2023/09/22 05:12:31;;;;;;;24.07;23.27;;;16.60;99.90;;;;;;5051837;28;20647;-63
2023/09/22 05:15:00;;;;;;;27.20;26.27;;;16.60;99.90;;;;;;5055361;28;20203;-61
2023/09/22 05:17:27;;;;;;;25.83;24.93;;;16.60;99.90;;;;;;5070939;28;20239;-62
2023/09/22 05:19:54;;;;;;;22.77;21.97;;;16.60;99.90;;;;;;5070537;28;20624;-63
2023/09/22 05:22:22;;;;;;;25.20;24.30;;;16.60;99.90;;;;;;5071349;28;20211;-62
2023/09/22 05:24:51;;;;;;;27.83;26.87;;;16.60;99.90;;;;;;5071482;28;20227;-63
2023/09/22 05:27:18;;;;;;;23.77;22.97;;;16.60;99.90;;;;;;5072063;28;20766;-63
2023/09/22 05:29:45;;;;;;;25.95;25.05;;;16.70;99.90;;;;;;5071535;28;20653;-63
2023/09/22 05:32:12;;;;;;;26.73;25.80;;;16.70;99.90;;;;;;5072321;28;20606;-62
2023/09/22 05:34:39;;;;;;;24.90;24.00;;;16.60;99.90;;;;;;5071623;28;20204;-61
2023/09/22 05:37:06;;;;;;;26.08;25.17;;;16.70;99.90;;;;;;5071787;28;20211;-63
2023/09/22 05:39:33;;;;;;;23.23;22.43;;;16.70;99.90;;;;;;5071886;28;20242;-62
2023/09/22 05:42:01;;;;;;;25.17;24.30;;;16.70;99.90;;;;;;5071705;28;20210;-63
2023/09/22 05:44:29;;;;;;;25.03;24.17;;;16.70;99.90;;;;;;5071628;28;20234;-62
2023/09/22 05:46:56;;;;;;;27.47;26.53;;;16.70;99.90;;;;;;5071283;28;20216;-63
2023/09/22 05:49:23;;;;;;;24.07;23.23;;;16.70;99.90;;;;;;5071630;28;20591;-63
2023/09/22 05:51:51;;;;;;;26.70;25.75;;;16.80;99.90;;;;;;5071532;28;20230;-61
2023/09/22 05:54:17;;;;;;;25.40;24.50;;;16.80;99.90;;;;;;5071572;28;20233;-63
2023/09/22 05:56:44;;;;;;;18.65;18.05;;;16.80;99.90;;;;;;5071379;28;20229;-62
2023/09/22 05:59:12;;;;;;;25.38;24.38;;;16.80;99.90;;;;;;5067709;28;20234;-62
2023/09/22 06:01:39;;;;;;;23.77;22.97;;;16.80;99.90;;;;;;5066681;28;20207;-63
2023/09/22 06:04:09;;;;;;;26.65;25.73;;;16.80;99.90;;;;;;5070758;28;20223;-62
2023/09/22 06:06:36;;;;;;;21.33;20.63;;;16.80;99.90;;;;;;5070725;28;20211;-62
2023/09/22 06:09:10;;;;;;;24.60;23.77;;;16.80;99.90;;;;;;5071273;28;20237;-62
2023/09/22 06:11:38;;;;;;;26.08;25.17;;;16.80;99.90;;;;;;5070355;28;20217;-62
2023/09/22 06:14:05;;;;;;;25.57;24.67;;;16.80;99.90;;;;;;5070599;28;20584;-62
2023/09/22 06:16:33;;;;;;;20.07;19.27;;;16.80;99.90;;;;;;5071645;28;20207;-63
2023/09/22 06:19:00;;;;;;;17.33;16.73;;;16.80;99.90;;;;;;5072505;28;20652;-63
2023/09/22 06:21:29;;;;;;;19.17;18.47;;;16.80;99.90;;;;;;5072729;28;20227;-62
2023/09/22 06:23:57;;;;;;;22.03;21.30;;;16.90;99.90;;;;;;5072778;28;20242;-64
2023/09/22 06:26:23;;;;;;;22.30;21.55;;;16.90;99.90;;;;;;5065049;28;20211;-63
2023/09/22 06:28:50;;;;;;;27.00;26.08;;;16.90;99.90;;;;;;5067408;28;20231;-62
2023/09/22 06:31:18;;;;;;;25.80;24.90;;;16.90;99.90;;;;;;5063499;28;20585;-61
2023/09/22 06:33:48;;;;;;;24.10;23.20;;;16.90;99.90;;;;;;5059962;28;20203;-61
2023/09/22 06:36:14;;;;;;;26.52;25.63;;;16.90;99.90;;;;;;5067116;28;20207;-62
2023/09/22 06:38:41;;;;;;;25.27;24.38;;;16.90;99.90;;;;;;5068153;28;20267;-62
2023/09/22 06:41:08;;;;;;;26.20;25.30;;;16.90;99.90;;;;;;5068482;28;20239;-62
2023/09/22 06:43:36;;;;;;;29.08;28.08;;;17.10;99.90;;;;;;5068534;28;20305;-62
2023/09/22 06:46:04;;;;;;;27.17;26.27;;;17.00;99.90;;;;;;5069648;28;20285;-62
2023/09/22 06:48:31;;;;;;;28.43;27.47;;;17.00;99.90;;;;;;5066306;28;20298;-62
2023/09/22 06:50:59;;;;;;;26.92;25.98;;;17.00;99.90;;;;;;5068742;28;20227;-64
2023/09/22 06:53:28;;;;;;;26.13;25.23;;;17.00;99.90;;;;;;5070506;28;20204;-64
2023/09/22 06:56:03;;;;;;;25.45;24.55;;;17.00;99.90;;;;;;5067508;28;20545;-64
2023/09/22 06:58:30;;;;;;;26.55;25.65;;;17.00;99.90;;;;;;5068250;28;20349;-62
2023/09/22 07:01:06;;;;;;;28.15;27.17;;;17.00;99.90;;;;;;5067601;28;20235;-62
2023/09/22 07:03:32;;;;;;;29.17;28.17;;;17.00;99.90;;;;;;5065106;28;20211;-62
2023/09/22 07:06:01;;;;;;;32.33;31.23;;;17.00;99.90;;;;;;5070679;28;20207;-63
2023/09/22 07:08:29;;;;;;;29.33;28.23;;;17.10;99.90;;;;;;5070203;28;20449;-63
2023/09/22 07:11:01;;;;;;;27.63;26.65;;;17.10;99.90;;;;;;5070505;28;20310;-63
2023/09/22 07:13:29;;;;;;;31.17;30.07;;;17.10;99.90;;;;;;5067500;28;20211;-63
2023/09/22 07:15:57;;;;;;;22.48;21.73;;;17.10;99.90;;;;;;5060619;28;20211;-63
2023/09/22 07:18:24;;;;;;;30.75;29.65;;;17.10;99.90;;;;;;5067665;28;20726;-63
2023/09/22 07:20:51;;;;;;;29.15;28.15;;;17.20;99.90;;;;;;5070979;28;20254;-63
2023/09/22 07:23:19;;;;;;;26.60;25.70;;;17.10;99.90;;;;;;5066254;28;20211;-63
2023/09/22 07:25:46;;;;;;;24.85;23.95;;;17.20;99.90;;;;;;5072816;28;20226;-63
2023/09/22 07:28:13;;;;;;;28.58;27.60;;;17.10;99.90;;;;;;5066587;28;20214;-63
2023/09/22 07:30:40;;;;;;;30.50;29.42;;;17.10;99.90;;;;;;5064040;28;20230;-63
2023/09/22 07:33:09;;;;;;;28.45;27.48;;;17.00;99.90;;;;;;5063729;28;20226;-63
2023/09/22 07:35:36;;;;;;;29.63;28.63;;;17.00;99.90;;;;;;5066867;28;20203;-62
2023/09/22 07:38:02;;;;;;;28.05;27.10;;;17.00;99.90;;;;;;5063985;28;20203;-63
2023/09/22 07:40:31;;;;;;;30.70;29.60;;;17.00;99.90;;;;;;5066273;28;20466;-63
2023/09/22 07:42:58;;;;;;;32.70;31.60;;;17.10;99.90;;;;;;5060053;28;20616;-63
2023/09/22 07:45:24;;;;;;;25.98;25.05;;;17.00;99.90;;;;;;5064823;28;20314;-63
2023/09/22 07:47:51;;;;;;;26.70;25.80;;;17.00;99.90;;;;;;5070786;28;20211;-63
2023/09/22 07:50:20;;;;;;;24.65;23.80;;;17.10;99.90;;;;;;5071498;28;20223;-63
2023/09/22 07:52:47;;;;;;;24.50;23.70;;;17.10;99.90;;;;;;5069524;28;20772;-63
2023/09/22 07:55:17;;;;;;;26.50;25.60;;;17.20;99.90;;;;;;5073445;28;20199;-64
2023/09/22 07:57:49;;;;;;;24.60;23.67;;;17.30;99.90;;;;;;5072401;28;20211;-62
2023/09/22 08:00:18;;;;;;;25.13;24.27;;;17.40;99.90;;;;;;5071991;28;20227;-62
2023/09/22 08:02:46;;;;;;;26.47;25.53;;;17.40;99.90;;;;;;5071802;28;20230;-62
2023/09/22 08:05:15;;;;;;;22.70;21.93;;;17.50;99.90;;;;;;5068002;28;20810;-62
2023/09/22 08:07:43;;;;;;;20.40;19.70;;;17.60;99.90;;;;;;5062586;28;20208;-62
2023/09/22 08:10:11;;;;;;;24.20;23.37;;;17.60;99.90;;;;;;5062651;28;20235;-62
2023/09/22 08:12:38;;;;;;;15.48;14.95;;;17.70;99.90;;;;;;5067731;28;20239;-62
2023/09/22 08:15:08;;;;;;;18.13;17.53;;;17.70;99.90;;;;;;5072190;28;20262;-62
2023/09/22 08:17:35;;;;;;;21.40;20.67;;;17.80;99.90;;;;;;5070699;28;20207;-62
2023/09/22 08:20:03;;;;;;;16.40;15.83;;;17.80;99.90;;;;;;5075009;28;20361;-62
2023/09/22 08:22:30;;;;;;;25.07;24.20;;;17.90;99.90;;;;;;5076882;28;20219;-61
2023/09/22 08:24:57;;;;;;;21.08;20.35;;;17.90;99.90;;;;;;5069007;28;20302;-64
2023/09/22 08:27:24;;;;;;;22.02;21.25;;;18.00;99.90;;;;;;5074184;28;20211;-64
2023/09/22 08:29:51;;;;;;;16.80;16.20;;;18.00;99.90;;;;;;5075114;28;20227;-63
2023/09/22 08:32:19;;;;;;;18.85;18.15;;;18.00;99.90;;;;;;5066553;28;20666;-64
2023/09/22 08:34:52;;;;;;;14.35;13.85;;;18.00;99.90;;;;;;5073563;28;20213;-63
2023/09/22 08:37:18;;;;;;;14.97;14.47;;;18.00;99.90;;;;;;5078279;28;20279;-62
2023/09/22 08:39:45;;;;;;;15.85;15.32;;;18.20;99.90;;;;;;5082355;28;20223;-61
2023/09/22 08:42:12;;;;;;;14.20;13.73;;;18.50;99.90;;;;;;5082569;28;20298;-63
2023/09/22 08:44:39;;;;;;;15.10;14.60;;;18.60;99.90;;;;;;5082265;28;20227;-63
2023/09/22 08:47:06;;;;;;;15.57;15.07;;;18.70;99.90;;;;;;5079676;28;20275;-63
2023/09/22 08:49:34;;;;;;;14.52;14.02;;;18.80;99.90;;;;;;5076096;28;20235;-62
2023/09/22 08:52:02;;;;;;;16.48;15.93;;;19.30;99.90;;;;;;5074038;28;20211;-64
2023/09/22 08:54:29;;;;;;;16.43;15.90;;;19.60;99.90;;;;;;5072296;28;20195;-64
2023/09/22 08:56:56;;;;;;;15.65;15.15;;;19.60;99.90;;;;;;5069522;28;20225;-63
2023/09/22 08:59:23;;;;;;;32.72;31.27;;;19.40;99.90;;;;;;5066165;28;20237;-64
2023/09/22 09:01:50;;;;;;;17.98;17.38;;;19.20;99.90;;;;;;5072819;28;20207;-64
2023/09/22 09:04:31;;;;;;;17.93;17.30;;;19.10;99.90;;;;;;5069365;28;20211;-62
2023/09/22 09:06:59;;;;;;;21.27;20.58;;;19.10;99.90;;;;;;5073132;28;20203;-62
2023/09/22 09:09:26;;;;;;;16.63;16.05;;;19.40;99.90;;;;;;5072326;28;20219;-62
2023/09/22 09:11:59;;;;;;;15.38;14.88;;;19.70;99.90;;;;;;5068313;28;20207;-62
2023/09/22 09:14:28;;;;;;;15.07;14.57;;;19.90;99.90;;;;;;5068786;28;20223;-64
2023/09/22 09:16:56;;;;;;;14.82;14.32;;;20.30;99.90;;;;;;5072531;28;20222;-63
2023/09/22 09:19:22;;;;;;;14.68;14.18;;;20.50;99.90;;;;;;5071054;28;20238;-63
2023/09/22 09:22:09;;;;;;;16.52;15.93;;;20.80;99.90;;;;;;5073027;28;20205;-63
2023/09/22 09:24:36;;;;;;;18.33;17.73;;;20.70;99.90;;;;;;5065213;28;20279;-63
2023/09/22 09:27:17;;;;;;;16.83;16.23;;;20.60;99.90;;;;;;5065099;28;20221;-64
2023/09/22 09:29:45;;;;;;;16.75;16.15;;;20.70;99.90;;;;;;5070331;28;20227;-64
2023/09/22 09:32:12;;;;;;;15.55;15.05;;;20.60;99.90;;;;;;5058127;28;20215;-62
2023/09/22 09:34:40;;;;;;;14.25;13.75;;;20.50;99.90;;;;;;5051382;28;20290;-62
2023/09/22 09:37:14;;;;;;;14.70;14.20;;;20.70;99.90;;;;;;5061744;28;20210;-62
2023/09/22 09:39:45;;;;;;;13.90;13.40;;;20.90;99.90;;;;;;5072768;28;20234;-61
2023/09/22 09:42:16;;;;;;;14.55;14.05;;;20.80;99.90;;;;;;5079921;28;20230;-61
2023/09/22 09:44:48;;;;;;;14.82;14.32;;;20.60;99.90;;;;;;5084569;28;20272;-63
2023/09/22 09:47:21;;;;;;;15.75;15.25;;;20.40;99.90;;;;;;5075427;28;20215;-62
2023/09/22 09:49:52;;;;;;;16.05;15.55;;;20.20;99.90;;;;;;5074344;28;20234;-62
2023/09/22 09:52:23;;;;;;;14.60;14.10;;;20.40;99.90;;;;;;5073780;28;20677;-62
2023/09/22 09:54:59;;;;;;;14.70;14.20;;;20.40;99.90;;;;;;5070114;28;20203;-64
2023/09/22 09:57:27;;;;;;;16.58;15.98;;;20.80;99.90;;;;;;5068883;28;20218;-64
2023/09/22 09:59:54;;;;;;;16.20;15.60;;;21.20;99.90;;;;;;5070590;28;20703;-64
2023/09/22 10:02:22;;;;;;;15.73;15.23;;;21.40;99.90;;;;;;5071379;28;20290;-63
2023/09/22 10:04:49;;;;;;;15.65;15.15;;;21.30;99.90;;;;;;5065665;28;20231;-62
2023/09/22 10:07:17;;;;;;;25.67;24.63;;;21.40;99.90;;;;;;5064507;28;20210;-63
2023/09/22 10:09:45;;;;;;;16.10;15.50;;;21.20;99.90;;;;;;5070670;28;20223;-62
2023/09/22 10:12:13;;;;;;;15.45;14.95;;;20.80;99.90;;;;;;5070783;28;20215;-62
2023/09/22 10:14:46;;;;;;;16.02;15.50;;;20.50;99.90;;;;;;5062609;28;20207;-63
2023/09/22 10:17:21;;;;;;;14.95;14.40;;;20.20;99.90;;;;;;5061510;28;20210;-64
2023/09/22 10:19:49;;;;;;;14.55;14.05;;;20.10;99.90;;;;;;5066245;28;20223;-63
2023/09/22 10:22:16;;;;;;;15.50;15.00;;;20.00;99.90;;;;;;5070814;28;20298;-63
2023/09/22 10:24:43;;;;;;;14.05;13.55;;;19.90;99.90;;;;;;5063310;28;20310;-62
2023/09/22 10:27:13;;;;;;;14.93;14.43;;;19.90;99.90;;;;;;5067606;28;20211;-64
2023/09/22 10:29:43;;;;;;;13.52;13.13;;;19.80;99.90;;;;;;5068182;28;20234;-64
2023/09/22 10:32:27;;;;;;;13.40;12.90;;;19.80;99.90;;;;;;5070790;28;20212;-63
2023/09/22 10:34:55;;;;;;;13.68;13.20;;;19.80;99.90;;;;;;5070264;28;20207;-62
2023/09/22 10:37:24;;;;;;;13.20;12.70;;;19.80;99.90;;;;;;5071957;28;20219;-63
2023/09/22 10:39:57;;;;;;;13.82;13.32;;;19.90;99.90;;;;;;5070702;28;20253;-62
2023/09/22 10:42:27;;;;;;;13.63;13.13;;;19.90;99.90;;;;;;5070804;28;20215;-64
2023/09/22 10:44:58;;;;;;;15.52;15.02;;;20.20;99.90;;;;;;5069752;28;20217;-64
2023/09/22 10:47:27;;;;;;;16.17;15.68;;;20.70;99.90;;;;;;5070020;28;20242;-62
2023/09/22 10:49:54;;;;;;;16.92;16.33;;;20.90;99.90;;;;;;5069644;28;20707;-62
2023/09/22 10:52:21;;;;;;;17.77;17.17;;;20.90;99.90;;;;;;5070140;28;20203;-62
2023/09/22 10:54:48;;;;;;;14.67;14.07;;;20.90;99.90;;;;;;5070075;28;20298;-62
2023/09/22 10:57:27;;;;;;;16.00;15.32;;;21.10;99.90;;;;;;5070347;28;20688;-64
2023/09/22 10:59:55;;;;;;;14.50;14.00;;;21.20;99.90;;;;;;5073049;28;20815;-62
2023/09/22 11:02:23;;;;;;;13.27;12.82;;;21.50;99.90;;;;;;5069588;28;20269;-62
2023/09/22 11:04:50;;;;;;;13.77;13.27;;;21.90;99.90;;;;;;5069777;28;20207;-63
2023/09/22 11:07:31;;;;;;;13.68;13.18;;;22.20;99.90;;;;;;5070090;28;20199;-63
2023/09/22 11:09:59;;;;;;;14.90;14.40;;;22.30;99.90;;;;;;5069900;28;20238;-63
2023/09/22 11:12:28;;;;;;;15.52;15.02;;;22.30;99.90;;;;;;5070856;28;20207;-63
2023/09/22 11:14:54;;;;;;;15.55;15.05;;;22.30;99.90;;;;;;5069433;28;20217;-63
2023/09/22 11:17:22;;;;;;;16.33;15.73;;;22.40;99.90;;;;;;5070083;28;20217;-63
2023/09/22 11:19:52;;;;;;;14.48;13.98;;;22.40;99.90;;;;;;5069700;28;20585;-62
2023/09/22 11:22:19;;;;;;;15.93;15.40;;;22.30;99.90;;;;;;5072854;28;20684;-62
2023/09/22 11:24:46;;;;;;;43.10;40.78;;;22.30;99.90;;;;;;5073784;28;20238;-63
2023/09/22 11:27:13;;;;;;;16.50;15.90;;;22.30;99.90;;;;;;5073286;28;20654;-62
2023/09/22 11:29:42;;;;;;;17.10;16.50;;;22.30;99.90;;;;;;5074838;28;20603;-64
2023/09/22 11:32:09;;;;;;;14.03;13.53;;;22.30;99.90;;;;;;5074041;28;20207;-63
2023/09/22 11:34:45;;;;;;;16.50;15.90;;;22.20;99.90;;;;;;5073096;28;20211;-61
2023/09/22 11:37:12;;;;;;;15.50;15.00;;;22.10;99.90;;;;;;5073465;28;20203;-63
2023/09/22 11:39:38;;;;;;;14.25;13.75;;;21.90;99.90;;;;;;5073501;28;20227;-63
2023/09/22 11:42:05;;;;;;;15.30;14.80;;;21.80;99.90;;;;;;5073460;28;20241;-63
2023/09/22 11:44:33;;;;;;;16.30;15.70;;;21.90;99.90;;;;;;5073772;28;20298;-62
2023/09/22 11:47:02;;;;;;;14.10;13.60;;;22.00;99.90;;;;;;5070069;28;20227;-62
2023/09/22 11:49:37;;;;;;;16.35;15.75;;;22.20;99.90;;;;;;5072623;28;20231;-63
2023/09/22 11:52:04;;;;;;;15.32;14.82;;;22.30;99.90;;;;;;5070114;28;20202;-62
2023/09/22 11:54:35;;;;;;;14.65;14.15;;;22.00;99.90;;;;;;5073083;28;20214;-63
2023/09/22 11:57:03;;;;;;;17.02;16.42;;;21.80;99.90;;;;;;5073177;28;20215;-62
2023/09/22 11:59:31;;;;;;;20.73;19.95;;;22.00;99.90;;;;;;5073058;28;20323;-64
2023/09/22 12:02:03;;;;;;;15.45;14.95;;;21.90;99.90;;;;;;5074511;28;20314;-64
2023/09/22 12:04:34;;;;;;;18.27;17.60;;;21.90;99.90;;;;;;5078910;28;20558;-62
2023/09/22 12:07:02;;;;;;;15.35;14.82;;;21.70;99.90;;;;;;5078294;28;20215;-62
2023/09/22 12:09:28;;;;;;;17.25;16.65;;;21.70;99.90;;;;;;5075300;28;20234;-62
2023/09/22 12:11:55;;;;;;;17.08;16.42;;;21.80;99.90;;;;;;5073336;28;20229;-63
2023/09/22 12:14:23;;;;;;;19.52;18.73;;;22.00;99.90;;;;;;5072999;28;20667;-64
2023/09/22 12:16:51;;;;;;;13.23;12.73;;;22.00;99.90;;;;;;5073819;28;20230;-63
2023/09/22 12:19:20;;;;;;;19.05;18.35;;;22.20;99.90;;;;;;5069140;28;20710;-63
2023/09/22 12:21:47;;;;;;;14.80;14.30;;;22.30;99.90;;;;;;5072274;28;20638;-63
2023/09/22 12:24:14;;;;;;;14.70;14.20;;;22.30;99.90;;;;;;5072582;28;20210;-62
2023/09/22 12:26:41;;;;;;;15.65;15.13;;;22.40;99.90;;;;;;5072592;28;20668;-64
2023/09/22 12:29:08;;;;;;;15.50;15.00;;;22.40;99.90;;;;;;5072576;28;20336;-63
2023/09/22 12:31:35;;;;;;;16.70;16.10;;;22.50;99.90;;;;;;5071509;28;20273;-61
2023/09/22 12:34:02;;;;;;;15.52;15.02;;;22.60;99.90;;;;;;5072359;28;20207;-63